Lakeside Heights, Texas
Current Conditions -  °F | °C
As of 10:15 AM on Thursday 29 Jan 2015 (Local Time) from KDZB Reporting Station
Overcast Overcast  
Wind Chill: 64°   Ceiling: 10000
Heat Index: 64°   Visibility: 10mi
Dew Point: 45°   Wind: 0mph
Humidity: 50%   Direction: NA
Pressure: 30.28"   Gusts: NA
Location:  30.6735°N, 98.4512°W
Report Text: KDZB 291615Z AUTO 00000KT 10SM OVC100 18/07 A3028 RMK AO2 T01780073
Loading
Personal Weather Stations






























Interactive Weather Map New forecast layout! Learn more

10-Day Weather Forecast

Advertisements
Track Severe Weather on mobile